No particular awareness of the weather is required.    There are no Weather-warnings


Meteo18 Weather Cam more information Meteo18 Weather Cam


Thunder radar more information blitzortung!


Rain radar more information rain snow radar


Visit our other weather sites:

Template documentation
and downloads

And another site



Weather Underground History page Text

Daily Summary for February 9, 2017 Units:  Both    English   Metric
« Previous Day
Next Day »
Daily Weekly Monthly Yearly Custom
  High: Low: Average:
Temperature: 43.9 °F /  6.6 °C 32.5 °F /  0.3 °C 38.3 °F /  3.5 °C
Dew Point: 37 °F /  2.8 °C 29.7 °F /  -1.3 °C 34.9 °F /  1.6 °C
Humidity: 97 % 67 % 88 %
Wind Speed: 11 mph /  17.7 km/h - 3.8 mph /  6.1 km/h
Wind Gust: 14 mph /  22.5 km/h - -
Wind:- - SSE
Pressure: 30.3 in /  1025.6 hPa 30.1 in /  1018.8 hPa -
Precipitation: 0 in /  0.0 mm    
Historical Graphs
 
 
Tabular Data for February 9, 2017
Time Temperature Dew Point Pressure Wind Wind Speed Wind Gust Humidity Rainfall Rate (Hourly)
00:02 38.7 °F /  3.7 °C 35.8 °F /  2.1 °C 30.3 in /  1025.6 hPa North 5 mph /  8.0 km/h 7 mph /  11.3 km/h 89 % 0 in /  0.0 mm
00:07 38.5 °F /  3.6 °C 35.6 °F /  2.0 °C 30.3 in /  1025.3 hPa NNW 2 mph /  3.2 km/h 7 mph /  11.3 km/h 89 % 0 in /  0.0 mm
00:12 38.5 °F /  3.6 °C 35.8 °F /  2.1 °C 30.3 in /  1025.3 hPa NNE 3 mph /  4.8 km/h 7 mph /  11.3 km/h 90 % 0 in /  0.0 mm
00:17 38.5 °F /  3.6 °C 35.8 °F /  2.1 °C 30.3 in /  1025.3 hPa NNW 4 mph /  6.4 km/h 5 mph /  8.0 km/h 90 % 0 in /  0.0 mm
00:22 38.7 °F /  3.7 °C 36 °F /  2.2 °C 30.3 in /  1025.3 hPa NNW 6 mph /  9.7 km/h 8 mph /  12.9 km/h 90 % 0 in /  0.0 mm
00:28 38.8 °F /  3.8 °C 36.1 °F /  2.3 °C 30.3 in /  1025.3 hPa NNE 3 mph /  4.8 km/h 8 mph /  12.9 km/h 90 % 0 in /  0.0 mm
00:37 39 °F /  3.9 °C 36.3 °F /  2.4 °C 30.3 in /  1025.6 hPa NE 3 mph /  4.8 km/h 8 mph /  12.9 km/h 90 % 0 in /  0.0 mm
00:42 39 °F /  3.9 °C 36.3 °F /  2.4 °C 30.3 in /  1025.6 hPa NNE 1 mph /  1.6 km/h 8 mph /  12.9 km/h 90 % 0 in /  0.0 mm
00:47 39 °F /  3.9 °C 36.3 °F /  2.4 °C 30.3 in /  1025.6 hPa North 2 mph /  3.2 km/h 8 mph /  12.9 km/h 90 % 0 in /  0.0 mm
00:52 39 °F /  3.9 °C 36.3 °F /  2.4 °C 30.3 in /  1025.6 hPa NNW 3 mph /  4.8 km/h 7 mph /  11.3 km/h 90 % 0 in /  0.0 mm
00:57 39 °F /  3.9 °C 36.3 °F /  2.4 °C 30.3 in /  1025.6 hPa NE 2 mph /  3.2 km/h 6 mph /  9.7 km/h 90 % 0 in /  0.0 mm
01:02 39 °F /  3.9 °C 36.3 °F /  2.4 °C 30.3 in /  1025.6 hPa Calm   6 mph /  9.7 km/h 90 % 0 in /  0.0 mm
01:07 39 °F /  3.9 °C 36.3 °F /  2.4 °C 30.3 in /  1025.6 hPa North 3 mph /  4.8 km/h 6 mph /  9.7 km/h 90 % 0 in /  0.0 mm
01:12 39 °F /  3.9 °C 36.3 °F /  2.4 °C 30.3 in /  1025.6 hPa Calm   6 mph /  9.7 km/h 90 % 0 in /  0.0 mm
01:17 39 °F /  3.9 °C 36.3 °F /  2.4 °C 30.3 in /  1025.6 hPa NE 1 mph /  1.6 km/h 5 mph /  8.0 km/h 90 % 0 in /  0.0 mm
01:22 39 °F /  3.9 °C 36.3 °F /  2.4 °C 30.3 in /  1025.3 hPa NNE 3 mph /  4.8 km/h 5 mph /  8.0 km/h 90 % 0 in /  0.0 mm
01:27 39 °F /  3.9 °C 36.3 °F /  2.4 °C 30.3 in /  1025.3 hPa Calm   7 mph /  11.3 km/h 90 % 0 in /  0.0 mm
01:32 39 °F /  3.9 °C 36.3 °F /  2.4 °C 30.3 in /  1025.3 hPa NNW 2 mph /  3.2 km/h 7 mph /  11.3 km/h 90 % 0 in /  0.0 mm
01:37 39 °F /  3.9 °C 36.3 °F /  2.4 °C 30.3 in /  1025.3 hPa NNW 3 mph /  4.8 km/h 7 mph /  11.3 km/h 90 % 0 in /  0.0 mm
01:42 39 °F /  3.9 °C 36.3 °F /  2.4 °C 30.3 in /  1025.3 hPa NE 1 mph /  1.6 km/h 6 mph /  9.7 km/h 90 % 0 in /  0.0 mm
01:47 39 °F /  3.9 °C 36.3 °F /  2.4 °C 30.3 in /  1025.3 hPa Calm   6 mph /  9.7 km/h 90 % 0 in /  0.0 mm
01:52 38.8 °F /  3.8 °C 36.1 °F /  2.3 °C 30.3 in /  1025.3 hPa Calm   6 mph /  9.7 km/h 90 % 0 in /  0.0 mm
01:57 38.8 °F /  3.8 °C 36.5 °F /  2.5 °C 30.3 in /  1025.3 hPa NNW 3 mph /  4.8 km/h 6 mph /  9.7 km/h 91 % 0 in /  0.0 mm
02:02 38.8 °F /  3.8 °C 36.5 °F /  2.5 °C 30.3 in /  1025.3 hPa NNW 4 mph /  6.4 km/h 6 mph /  9.7 km/h 91 % 0 in /  0.0 mm
02:07 38.8 °F /  3.8 °C 36.5 °F /  2.5 °C 30.3 in /  1025.3 hPa NW 3 mph /  4.8 km/h 7 mph /  11.3 km/h 91 % 0 in /  0.0 mm
02:17 38.8 °F /  3.8 °C 36.5 °F /  2.5 °C 30.3 in /  1025.3 hPa North 2 mph /  3.2 km/h 7 mph /  11.3 km/h 91 % 0 in /  0.0 mm
02:22 38.8 °F /  3.8 °C 36.5 °F /  2.5 °C 30.3 in /  1025.3 hPa WNW 2 mph /  3.2 km/h 6 mph /  9.7 km/h 91 % 0 in /  0.0 mm
02:27 38.8 °F /  3.8 °C 36.5 °F /  2.5 °C 30.3 in /  1025.3 hPa North 4 mph /  6.4 km/h 6 mph /  9.7 km/h 91 % 0 in /  0.0 mm
02:32 38.8 °F /  3.8 °C 36.5 °F /  2.5 °C 30.3 in /  1025.3 hPa NNW 3 mph /  4.8 km/h 6 mph /  9.7 km/h 91 % 0 in /  0.0 mm
02:37 38.7 °F /  3.7 °C 36.5 °F /  2.5 °C 30.3 in /  1025.3 hPa NW 3 mph /  4.8 km/h 6 mph /  9.7 km/h 92 % 0 in /  0.0 mm
02:42 38.7 °F /  3.7 °C 36.5 °F /  2.5 °C 30.3 in /  1025.3 hPa NW 3 mph /  4.8 km/h 6 mph /  9.7 km/h 92 % 0 in /  0.0 mm
02:47 38.7 °F /  3.7 °C 36.5 °F /  2.5 °C 30.3 in /  1025.3 hPa North 4 mph /  6.4 km/h 7 mph /  11.3 km/h 92 % 0 in /  0.0 mm
02:52 38.7 °F /  3.7 °C 36.5 °F /  2.5 °C 30.3 in /  1025.3 hPa NNW 1 mph /  1.6 km/h 7 mph /  11.3 km/h 92 % 0 in /  0.0 mm
02:57 38.7 °F /  3.7 °C 36.5 °F /  2.5 °C 30.3 in /  1025.3 hPa North 3 mph /  4.8 km/h 6 mph /  9.7 km/h 92 % 0 in /  0.0 mm
03:02 38.7 °F /  3.7 °C 36.5 °F /  2.5 °C 30.3 in /  1025.3 hPa NNW 2 mph /  3.2 km/h 6 mph /  9.7 km/h 92 % 0 in /  0.0 mm
03:07 38.7 °F /  3.7 °C 36.5 °F /  2.5 °C 30.3 in /  1025.3 hPa WNW 1 mph /  1.6 km/h 7 mph /  11.3 km/h 92 % 0 in /  0.0 mm
03:12 38.7 °F /  3.7 °C 36.5 °F /  2.5 °C 30.3 in /  1025.3 hPa NNE 1 mph /  1.6 km/h 7 mph /  11.3 km/h 92 % 0 in /  0.0 mm
03:17 38.7 °F /  3.7 °C 36.5 °F /  2.5 °C 30.3 in /  1025.3 hPa NNW 2 mph /  3.2 km/h 7 mph /  11.3 km/h 92 % 0 in /  0.0 mm
03:22 38.7 °F /  3.7 °C 36.5 °F /  2.5 °C 30.3 in /  1025.3 hPa North 2 mph /  3.2 km/h 6 mph /  9.7 km/h 92 % 0 in /  0.0 mm
03:27 38.7 °F /  3.7 °C 36.5 °F /  2.5 °C 30.3 in /  1024.9 hPa North 3 mph /  4.8 km/h 6 mph /  9.7 km/h 92 % 0 in /  0.0 mm
03:32 38.7 °F /  3.7 °C 36.5 °F /  2.5 °C 30.3 in /  1024.9 hPa North 6 mph /  9.7 km/h 8 mph /  12.9 km/h 92 % 0 in /  0.0 mm
03:37 38.7 °F /  3.7 °C 36.5 °F /  2.5 °C 30.3 in /  1024.9 hPa NNW 3 mph /  4.8 km/h 9 mph /  14.5 km/h 92 % 0 in /  0.0 mm
03:42 38.7 °F /  3.7 °C 36.5 °F /  2.5 °C 30.3 in /  1024.9 hPa NNW 2 mph /  3.2 km/h 9 mph /  14.5 km/h 92 % 0 in /  0.0 mm
03:47 38.7 °F /  3.7 °C 36.5 °F /  2.5 °C 30.3 in /  1024.9 hPa NNW 7 mph /  11.3 km/h 9 mph /  14.5 km/h 92 % 0 in /  0.0 mm
03:52 38.7 °F /  3.7 °C 36.5 °F /  2.5 °C 30.3 in /  1024.9 hPa NNE 2 mph /  3.2 km/h 9 mph /  14.5 km/h 92 % 0 in /  0.0 mm
03:57 38.7 °F /  3.7 °C 36.5 °F /  2.5 °C 30.3 in /  1024.9 hPa NNW 8 mph /  12.9 km/h 10 mph /  16.1 km/h 92 % 0 in /  0.0 mm
04:02 38.7 °F /  3.7 °C 36.5 °F /  2.5 °C 30.3 in /  1024.9 hPa Calm   11 mph /  17.7 km/h 92 % 0 in /  0.0 mm
04:07 38.7 °F /  3.7 °C 36.5 °F /  2.5 °C 30.3 in /  1024.9 hPa North 6 mph /  9.7 km/h 11 mph /  17.7 km/h 92 % 0 in /  0.0 mm
04:12 38.7 °F /  3.7 °C 36.5 °F /  2.5 °C 30.3 in /  1024.6 hPa NNW 9 mph /  14.5 km/h 11 mph /  17.7 km/h 92 % 0 in /  0.0 mm
04:17 38.5 °F /  3.6 °C 36.3 °F /  2.4 °C 30.3 in /  1024.6 hPa NNW 5 mph /  8.0 km/h 11 mph /  17.7 km/h 92 % 0 in /  0.0 mm
04:22 38.5 °F /  3.6 °C 36.7 °F /  2.6 °C 30.3 in /  1024.6 hPa NNE 11 mph /  17.7 km/h 11 mph /  17.7 km/h 93 % 0 in /  0.0 mm
04:27 38.5 °F /  3.6 °C 36.7 °F /  2.6 °C 30.3 in /  1024.6 hPa NW 5 mph /  8.0 km/h 14 mph /  22.5 km/h 93 % 0 in /  0.0 mm
04:32 38.5 °F /  3.6 °C 36.7 °F /  2.6 °C 30.3 in /  1024.6 hPa North 7 mph /  11.3 km/h 14 mph /  22.5 km/h 93 % 0 in /  0.0 mm
04:37 38.3 °F /  3.5 °C 36.5 °F /  2.5 °C 30.3 in /  1024.6 hPa North 11 mph /  17.7 km/h 14 mph /  22.5 km/h 93 % 0 in /  0.0 mm
04:42 38.3 °F /  3.5 °C 36.5 °F /  2.5 °C 30.3 in /  1024.6 hPa North 6 mph /  9.7 km/h 13 mph /  20.9 km/h 93 % 0 in /  0.0 mm
04:47 38.3 °F /  3.5 °C 36.5 °F /  2.5 °C 30.3 in /  1024.6 hPa NNW 4 mph /  6.4 km/h 13 mph /  20.9 km/h 93 % 0 in /  0.0 mm
04:52 38.1 °F /  3.4 °C 36.3 °F /  2.4 °C 30.3 in /  1024.6 hPa NNW 9 mph /  14.5 km/h 13 mph /  20.9 km/h 93 % 0 in /  0.0 mm
04:57 38.1 °F /  3.4 °C 36.5 °F /  2.5 °C 30.3 in /  1024.6 hPa NNW 6 mph /  9.7 km/h 12 mph /  19.3 km/h 94 % 0 in /  0.0 mm
05:02 37.9 °F /  3.3 °C 36.3 °F /  2.4 °C 30.3 in /  1024.3 hPa NNW 4 mph /  6.4 km/h 12 mph /  19.3 km/h 94 % 0 in /  0.0 mm
05:07 37.9 °F /  3.3 °C 36.3 °F /  2.4 °C 30.3 in /  1024.3 hPa North 5 mph /  8.0 km/h 12 mph /  19.3 km/h 94 % 0 in /  0.0 mm
05:12 37.9 °F /  3.3 °C 36.3 °F /  2.4 °C 30.3 in /  1024.3 hPa NNW 3 mph /  4.8 km/h 12 mph /  19.3 km/h 94 % 0 in /  0.0 mm
05:17 37.9 °F /  3.3 °C 36.3 °F /  2.4 °C 30.3 in /  1024.3 hPa NNE 4 mph /  6.4 km/h 12 mph /  19.3 km/h 94 % 0 in /  0.0 mm
05:22 37.8 °F /  3.2 °C 36.1 °F /  2.3 °C 30.3 in /  1024.3 hPa NNW 5 mph /  8.0 km/h 10 mph /  16.1 km/h 94 % 0 in /  0.0 mm
05:27 37.8 °F /  3.2 °C 36.1 °F /  2.3 °C 30.3 in /  1024.3 hPa NNE 7 mph /  11.3 km/h 8 mph /  12.9 km/h 94 % 0 in /  0.0 mm
05:32 37.8 °F /  3.2 °C 36.1 °F /  2.3 °C 30.3 in /  1024.6 hPa NNW 5 mph /  8.0 km/h 13 mph /  20.9 km/h 94 % 0 in /  0.0 mm
05:37 37.6 °F /  3.1 °C 36.3 °F /  2.4 °C 30.3 in /  1024.6 hPa NE 3 mph /  4.8 km/h 13 mph /  20.9 km/h 95 % 0 in /  0.0 mm
05:42 37.6 °F /  3.1 °C 36.3 °F /  2.4 °C 30.3 in /  1024.6 hPa NNW 3 mph /  4.8 km/h 11 mph /  17.7 km/h 95 % 0 in /  0.0 mm
05:47 37.6 °F /  3.1 °C 36.3 °F /  2.4 °C 30.3 in /  1024.6 hPa NW 3 mph /  4.8 km/h 10 mph /  16.1 km/h 95 % 0 in /  0.0 mm
05:52 37.6 °F /  3.1 °C 36.3 °F /  2.4 °C 30.3 in /  1024.6 hPa North 3 mph /  4.8 km/h 8 mph /  12.9 km/h 95 % 0 in /  0.0 mm
05:57 37.6 °F /  3.1 °C 36.3 °F /  2.4 °C 30.3 in /  1024.6 hPa NE 6 mph /  9.7 km/h 8 mph /  12.9 km/h 95 % 0 in /  0.0 mm
06:02 37.4 °F /  3.0 °C 36.1 °F /  2.3 °C 30.3 in /  1024.6 hPa North 5 mph /  8.0 km/h 8 mph /  12.9 km/h 95 % 0 in /  0.0 mm
06:07 37.2 °F /  2.9 °C 36 °F /  2.2 °C 30.3 in /  1024.3 hPa North 7 mph /  11.3 km/h 13 mph /  20.9 km/h 95 % 0 in /  0.0 mm
06:12 37.2 °F /  2.9 °C 36.1 °F /  2.3 °C 30.3 in /  1024.3 hPa North 2 mph /  3.2 km/h 13 mph /  20.9 km/h 96 % 0 in /  0.0 mm
06:17 37.2 °F /  2.9 °C 36.1 °F /  2.3 °C 30.3 in /  1024.3 hPa NW 4 mph /  6.4 km/h 13 mph /  20.9 km/h 96 % 0 in /  0.0 mm
06:22 37.2 °F /  2.9 °C 36.1 °F /  2.3 °C 30.3 in /  1024.3 hPa NNW 5 mph /  8.0 km/h 13 mph /  20.9 km/h 96 % 0 in /  0.0 mm
06:27 37.2 °F /  2.9 °C 36.1 °F /  2.3 °C 30.3 in /  1024.3 hPa North 4 mph /  6.4 km/h 9 mph /  14.5 km/h 96 % 0 in /  0.0 mm
06:32 37.2 °F /  2.9 °C 36.1 °F /  2.3 °C 30.3 in /  1024.3 hPa NW 6 mph /  9.7 km/h 9 mph /  14.5 km/h 96 % 0 in /  0.0 mm
06:37 37.2 °F /  2.9 °C 36.1 °F /  2.3 °C 30.3 in /  1024.3 hPa NNW 5 mph /  8.0 km/h 9 mph /  14.5 km/h 96 % 0 in /  0.0 mm
06:42 37 °F /  2.8 °C 36 °F /  2.2 °C 30.3 in /  1024.3 hPa NE 4 mph /  6.4 km/h 9 mph /  14.5 km/h 96 % 0 in /  0.0 mm
06:47 37 °F /  2.8 °C 36 °F /  2.2 °C 30.3 in /  1024.3 hPa North 5 mph /  8.0 km/h 9 mph /  14.5 km/h 96 % 0 in /  0.0 mm
06:52 37 °F /  2.8 °C 36 °F /  2.2 °C 30.3 in /  1024.3 hPa SSE 1 mph /  1.6 km/h 12 mph /  19.3 km/h 96 % 0 in /  0.0 mm
06:57 37 °F /  2.8 °C 36 °F /  2.2 °C 30.3 in /  1024.3 hPa North 5 mph /  8.0 km/h 12 mph /  19.3 km/h 96 % 0 in /  0.0 mm
07:02 37 °F /  2.8 °C 36 °F /  2.2 °C 30.3 in /  1024.3 hPa WNW 2 mph /  3.2 km/h 12 mph /  19.3 km/h 96 % 0 in /  0.0 mm
07:12 37 °F /  2.8 °C 36 °F /  2.2 °C 30.3 in /  1024.3 hPa NNE 6 mph /  9.7 km/h 9 mph /  14.5 km/h 96 % 0 in /  0.0 mm
07:17 37 °F /  2.8 °C 36 °F /  2.2 °C 30.3 in /  1024.3 hPa NNW 7 mph /  11.3 km/h 10 mph /  16.1 km/h 96 % 0 in /  0.0 mm
07:22 36.9 °F /  2.7 °C 35.8 °F /  2.1 °C 30.3 in /  1024.3 hPa NNW 6 mph /  9.7 km/h 13 mph /  20.9 km/h 96 % 0 in /  0.0 mm
07:27 36.9 °F /  2.7 °C 35.8 °F /  2.1 °C 30.3 in /  1024.3 hPa NE 5 mph /  8.0 km/h 13 mph /  20.9 km/h 96 % 0 in /  0.0 mm
07:32 36.9 °F /  2.7 °C 35.8 °F /  2.1 °C 30.3 in /  1024.3 hPa NNW 6 mph /  9.7 km/h 13 mph /  20.9 km/h 96 % 0 in /  0.0 mm
07:37 36.9 °F /  2.7 °C 36.1 °F /  2.3 °C 30.3 in /  1024.3 hPa NNW 4 mph /  6.4 km/h 11 mph /  17.7 km/h 97 % 0 in /  0.0 mm
07:42 36.9 °F /  2.7 °C 36.1 °F /  2.3 °C 30.3 in /  1024.3 hPa NW 4 mph /  6.4 km/h 11 mph /  17.7 km/h 97 % 0 in /  0.0 mm
07:47 36.9 °F /  2.7 °C 36.1 °F /  2.3 °C 30.3 in /  1024.3 hPa NNW 5 mph /  8.0 km/h 12 mph /  19.3 km/h 97 % 0 in /  0.0 mm
07:52 36.9 °F /  2.7 °C 36.1 °F /  2.3 °C 30.3 in /  1024.3 hPa NE 7 mph /  11.3 km/h 14 mph /  22.5 km/h 97 % 0 in /  0.0 mm
07:57 36.9 °F /  2.7 °C 36.1 °F /  2.3 °C 30.3 in /  1024.3 hPa NNW 6 mph /  9.7 km/h 14 mph /  22.5 km/h 97 % 0 in /  0.0 mm
08:02 36.9 °F /  2.7 °C 36.1 °F /  2.3 °C 30.3 in /  1024.3 hPa NW 6 mph /  9.7 km/h 14 mph /  22.5 km/h 97 % 0 in /  0.0 mm
08:07 36.9 °F /  2.7 °C 36.1 °F /  2.3 °C 30.3 in /  1024.3 hPa North 10 mph /  16.1 km/h 10 mph /  16.1 km/h 97 % 0 in /  0.0 mm
08:12 36.7 °F /  2.6 °C 36 °F /  2.2 °C 30.3 in /  1024.3 hPa NNE 8 mph /  12.9 km/h 11 mph /  17.7 km/h 97 % 0 in /  0.0 mm
08:17 36.7 °F /  2.6 °C 36 °F /  2.2 °C 30.3 in /  1024.3 hPa North 7 mph /  11.3 km/h 11 mph /  17.7 km/h 97 % 0 in /  0.0 mm
08:22 36.7 °F /  2.6 °C 36 °F /  2.2 °C 30.3 in /  1024.3 hPa NNE 3 mph /  4.8 km/h 10 mph /  16.1 km/h 97 % 0 in /  0.0 mm
08:27 36.7 °F /  2.6 °C 36 °F /  2.2 °C 30.3 in /  1024.3 hPa NNE 8 mph /  12.9 km/h 9 mph /  14.5 km/h 97 % 0 in /  0.0 mm
08:32 36.7 °F /  2.6 °C 36 °F /  2.2 °C 30.3 in /  1024.3 hPa NNE 1 mph /  1.6 km/h 9 mph /  14.5 km/h 97 % 0 in /  0.0 mm
08:37 36.7 °F /  2.6 °C 36 °F /  2.2 °C 30.3 in /  1024.3 hPa NNW 4 mph /  6.4 km/h 12 mph /  19.3 km/h 97 % 0 in /  0.0 mm
08:42 36.7 °F /  2.6 °C 36 °F /  2.2 °C 30.3 in /  1024.3 hPa North 7 mph /  11.3 km/h 12 mph /  19.3 km/h 97 % 0 in /  0.0 mm
08:47 36.7 °F /  2.6 °C 36 °F /  2.2 °C 30.3 in /  1024.3 hPa NNW 6 mph /  9.7 km/h 11 mph /  17.7 km/h 97 % 0 in /  0.0 mm
08:52 36.7 °F /  2.6 °C 36 °F /  2.2 °C 30.3 in /  1024.3 hPa NW 5 mph /  8.0 km/h 11 mph /  17.7 km/h 97 % 0 in /  0.0 mm
08:57 36.7 °F /  2.6 °C 36 °F /  2.2 °C 30.3 in /  1024.3 hPa NNW 8 mph /  12.9 km/h 9 mph /  14.5 km/h 97 % 0 in /  0.0 mm
09:02 36.7 °F /  2.6 °C 36 °F /  2.2 °C 30.3 in /  1024.3 hPa NNE 6 mph /  9.7 km/h 9 mph /  14.5 km/h 97 % 0 in /  0.0 mm
09:07 36.5 °F /  2.5 °C 35.8 °F /  2.1 °C 30.3 in /  1024.3 hPa NNW 4 mph /  6.4 km/h 11 mph /  17.7 km/h 97 % 0 in /  0.0 mm
09:12 36.7 °F /  2.6 °C 36 °F /  2.2 °C 30.3 in /  1024.3 hPa North 2 mph /  3.2 km/h 10 mph /  16.1 km/h 97 % 0 in /  0.0 mm
09:17 36.7 °F /  2.6 °C 36 °F /  2.2 °C 30.3 in /  1024.3 hPa NNW 3 mph /  4.8 km/h 10 mph /  16.1 km/h 97 % 0 in /  0.0 mm
09:22 36.7 °F /  2.6 °C 36 °F /  2.2 °C 30.3 in /  1024.3 hPa North 3 mph /  4.8 km/h 10 mph /  16.1 km/h 97 % 0 in /  0.0 mm
09:27 36.7 °F /  2.6 °C 36 °F /  2.2 °C 30.3 in /  1024.3 hPa NE 2 mph /  3.2 km/h 9 mph /  14.5 km/h 97 % 0 in /  0.0 mm
09:32 36.7 °F /  2.6 °C 36 °F /  2.2 °C 30.3 in /  1024.3 hPa NNE 7 mph /  11.3 km/h 9 mph /  14.5 km/h 97 % 0 in /  0.0 mm
09:37 36.7 °F /  2.6 °C 36 °F /  2.2 °C 30.2 in /  1023.9 hPa NW 1 mph /  1.6 km/h 10 mph /  16.1 km/h 97 % 0 in /  0.0 mm
09:42 36.7 °F /  2.6 °C 36 °F /  2.2 °C 30.2 in /  1023.9 hPa NE 1 mph /  1.6 km/h 10 mph /  16.1 km/h 97 % 0 in /  0.0 mm
09:47 36.7 °F /  2.6 °C 36 °F /  2.2 °C 30.2 in /  1023.9 hPa NNW 2 mph /  3.2 km/h 10 mph /  16.1 km/h 97 % 0 in /  0.0 mm
09:52 36.9 °F /  2.7 °C 36.1 °F /  2.3 °C 30.2 in /  1023.9 hPa NNW 5 mph /  8.0 km/h 8 mph /  12.9 km/h 97 % 0 in /  0.0 mm
09:57 36.7 °F /  2.6 °C 36 °F /  2.2 °C 30.2 in /  1023.9 hPa NNE 10 mph /  16.1 km/h 10 mph /  16.1 km/h 97 % 0 in /  0.0 mm
10:02 36.7 °F /  2.6 °C 36 °F /  2.2 °C 30.2 in /  1023.9 hPa Calm   8 mph /  12.9 km/h 97 % 0 in /  0.0 mm
10:07 36.9 °F /  2.7 °C 36.1 °F /  2.3 °C 30.2 in /  1023.9 hPa NE 7 mph /  11.3 km/h 10 mph /  16.1 km/h 97 % 0 in /  0.0 mm
10:12 36.9 °F /  2.7 °C 36.1 °F /  2.3 °C 30.2 in /  1023.9 hPa NE 8 mph /  12.9 km/h 13 mph /  20.9 km/h 97 % 0 in /  0.0 mm
10:17 36.9 °F /  2.7 °C 36.1 °F /  2.3 °C 30.2 in /  1023.6 hPa North 11 mph /  17.7 km/h 13 mph /  20.9 km/h 97 % 0 in /  0.0 mm
10:22 36.9 °F /  2.7 °C 36.1 °F /  2.3 °C 30.2 in /  1023.6 hPa NE 4 mph /  6.4 km/h 13 mph /  20.9 km/h 97 % 0 in /  0.0 mm
10:27 36.9 °F /  2.7 °C 36.1 °F /  2.3 °C 30.2 in /  1023.6 hPa NNW 6 mph /  9.7 km/h 12 mph /  19.3 km/h 97 % 0 in /  0.0 mm
10:32 36.9 °F /  2.7 °C 36.1 °F /  2.3 °C 30.2 in /  1023.6 hPa NNE 6 mph /  9.7 km/h 12 mph /  19.3 km/h 97 % 0 in /  0.0 mm
10:37 36.9 °F /  2.7 °C 36.1 °F /  2.3 °C 30.2 in /  1023.6 hPa North 6 mph /  9.7 km/h 11 mph /  17.7 km/h 97 % 0 in /  0.0 mm
10:42 36.9 °F /  2.7 °C 36.1 °F /  2.3 °C 30.2 in /  1023.6 hPa Calm   12 mph /  19.3 km/h 97 % 0 in /  0.0 mm
10:47 36.9 °F /  2.7 °C 36.1 °F /  2.3 °C 30.2 in /  1023.6 hPa NNW 3 mph /  4.8 km/h 12 mph /  19.3 km/h 97 % 0 in /  0.0 mm
10:52 36.9 °F /  2.7 °C 36.1 °F /  2.3 °C 30.2 in /  1023.6 hPa NE 3 mph /  4.8 km/h 11 mph /  17.7 km/h 97 % 0 in /  0.0 mm
10:57 36.9 °F /  2.7 °C 36.1 °F /  2.3 °C 30.2 in /  1023.6 hPa NE 2 mph /  3.2 km/h 7 mph /  11.3 km/h 97 % 0 in /  0.0 mm
11:02 36.9 °F /  2.7 °C 36.1 °F /  2.3 °C 30.2 in /  1023.6 hPa North 4 mph /  6.4 km/h 8 mph /  12.9 km/h 97 % 0 in /  0.0 mm
11:07 37 °F /  2.8 °C 36.3 °F /  2.4 °C 30.2 in /  1023.6 hPa NE 5 mph /  8.0 km/h 8 mph /  12.9 km/h 97 % 0 in /  0.0 mm
11:12 37 °F /  2.8 °C 36.3 °F /  2.4 °C 30.2 in /  1023.6 hPa WNW 1 mph /  1.6 km/h 8 mph /  12.9 km/h 97 % 0 in /  0.0 mm
11:17 37 °F /  2.8 °C 36.3 °F /  2.4 °C 30.2 in /  1023.6 hPa NNE 1 mph /  1.6 km/h 7 mph /  11.3 km/h 97 % 0 in /  0.0 mm
11:22 37.2 °F /  2.9 °C 36.5 °F /  2.5 °C 30.2 in /  1023.2 hPa North 3 mph /  4.8 km/h 7 mph /  11.3 km/h 97 % 0 in /  0.0 mm
11:27 37.2 °F /  2.9 °C 36.5 °F /  2.5 °C 30.2 in /  1023.6 hPa NW 3 mph /  4.8 km/h 7 mph /  11.3 km/h 97 % 0 in /  0.0 mm
11:32 37.4 °F /  3.0 °C 36.7 °F /  2.6 °C 30.2 in /  1023.2 hPa NNW 3 mph /  4.8 km/h 7 mph /  11.3 km/h 97 % 0 in /  0.0 mm
11:37 37.6 °F /  3.1 °C 36.9 °F /  2.7 °C 30.2 in /  1023.2 hPa Calm   7 mph /  11.3 km/h 97 % 0 in /  0.0 mm
11:42 37.8 °F /  3.2 °C 37 °F /  2.8 °C 30.2 in /  1023.2 hPa NE 3 mph /  4.8 km/h 7 mph /  11.3 km/h 97 % 0 in /  0.0 mm
11:47 37.8 °F /  3.2 °C 37 °F /  2.8 °C 30.2 in /  1023.2 hPa NNW 5 mph /  8.0 km/h 8 mph /  12.9 km/h 97 % 0 in /  0.0 mm
11:52 37.8 °F /  3.2 °C 36.7 °F /  2.6 °C 30.2 in /  1023.2 hPa NNW 3 mph /  4.8 km/h 8 mph /  12.9 km/h 96 % 0 in /  0.0 mm
11:57 37.9 °F /  3.3 °C 36.9 °F /  2.7 °C 30.2 in /  1023.2 hPa NNE 4 mph /  6.4 km/h 8 mph /  12.9 km/h 96 % 0 in /  0.0 mm
12:02 37.9 °F /  3.3 °C 36.7 °F /  2.6 °C 30.2 in /  1023.2 hPa NNE 5 mph /  8.0 km/h 8 mph /  12.9 km/h 95 % 0 in /  0.0 mm
12:07 38.3 °F /  3.5 °C 37 °F /  2.8 °C 30.2 in /  1023.2 hPa North 5 mph /  8.0 km/h 9 mph /  14.5 km/h 95 % 0 in /  0.0 mm
12:12 38.5 °F /  3.6 °C 36.9 °F /  2.7 °C 30.2 in /  1023.2 hPa NNE 6 mph /  9.7 km/h 9 mph /  14.5 km/h 94 % 0 in /  0.0 mm
12:17 38.5 °F /  3.6 °C 36.9 °F /  2.7 °C 30.2 in /  1022.9 hPa North 4 mph /  6.4 km/h 8 mph /  12.9 km/h 94 % 0 in /  0.0 mm
12:22 38.7 °F /  3.7 °C 36.5 °F /  2.5 °C 30.2 in /  1022.9 hPa North 4 mph /  6.4 km/h 9 mph /  14.5 km/h 92 % 0 in /  0.0 mm
12:27 38.8 °F /  3.8 °C 36.7 °F /  2.6 °C 30.2 in /  1022.9 hPa NNE 3 mph /  4.8 km/h 9 mph /  14.5 km/h 92 % 0 in /  0.0 mm
12:32 39 °F /  3.9 °C 36.7 °F /  2.6 °C 30.2 in /  1022.9 hPa NE 3 mph /  4.8 km/h 9 mph /  14.5 km/h 91 % 0 in /  0.0 mm
12:37 39.2 °F /  4.0 °C 36.5 °F /  2.5 °C 30.2 in /  1022.6 hPa NNW 6 mph /  9.7 km/h 9 mph /  14.5 km/h 90 % 0 in /  0.0 mm
12:47 39 °F /  3.9 °C 35.8 °F /  2.1 °C 30.2 in /  1022.6 hPa NNW 3 mph /  4.8 km/h 11 mph /  17.7 km/h 88 % 0 in /  0.0 mm
12:52 39.4 °F /  4.1 °C 35.8 °F /  2.1 °C 30.2 in /  1022.6 hPa NNE 7 mph /  11.3 km/h 11 mph /  17.7 km/h 87 % 0 in /  0.0 mm
12:57 39.6 °F /  4.2 °C 35.8 °F /  2.1 °C 30.2 in /  1022.2 hPa NNE 5 mph /  8.0 km/h 10 mph /  16.1 km/h 86 % 0 in /  0.0 mm
13:02 39.7 °F /  4.3 °C 35.6 °F /  2.0 °C 30.2 in /  1022.2 hPa NNE 4 mph /  6.4 km/h 10 mph /  16.1 km/h 85 % 0 in /  0.0 mm
13:07 39.9 °F /  4.4 °C 35.4 °F /  1.9 °C 30.2 in /  1022.2 hPa North 7 mph /  11.3 km/h 10 mph /  16.1 km/h 84 % 0 in /  0.0 mm
13:12 40.3 °F /  4.6 °C 36.1 °F /  2.3 °C 30.2 in /  1022.2 hPa NNW 4 mph /  6.4 km/h 8 mph /  12.9 km/h 85 % 0 in /  0.0 mm
13:17 40.3 °F /  4.6 °C 35.8 °F /  2.1 °C 30.2 in /  1022.2 hPa NNE 7 mph /  11.3 km/h 8 mph /  12.9 km/h 84 % 0 in /  0.0 mm
13:22 40.3 °F /  4.6 °C 35.6 °F /  2.0 °C 30.2 in /  1022.2 hPa NNE 6 mph /  9.7 km/h 9 mph /  14.5 km/h 83 % 0 in /  0.0 mm
13:27 40.5 °F /  4.7 °C 35.4 °F /  1.9 °C 30.2 in /  1022.2 hPa NNE 6 mph /  9.7 km/h 10 mph /  16.1 km/h 82 % 0 in /  0.0 mm
13:32 40.6 °F /  4.8 °C 35.6 °F /  2.0 °C 30.2 in /  1021.9 hPa NW 2 mph /  3.2 km/h 10 mph /  16.1 km/h 82 % 0 in /  0.0 mm
13:37 41.2 °F /  5.1 °C 36.5 °F /  2.5 °C 30.2 in /  1021.9 hPa NNW 6 mph /  9.7 km/h 10 mph /  16.1 km/h 83 % 0 in /  0.0 mm
13:42 40.8 °F /  4.9 °C 35.8 °F /  2.1 °C 30.2 in /  1021.9 hPa North 2 mph /  3.2 km/h 10 mph /  16.1 km/h 82 % 0 in /  0.0 mm
13:47 40.8 °F /  4.9 °C 35.8 °F /  2.1 °C 30.2 in /  1021.9 hPa NE 2 mph /  3.2 km/h 10 mph /  16.1 km/h 82 % 0 in /  0.0 mm
13:52 41 °F /  5.0 °C 36 °F /  2.2 °C 30.2 in /  1021.9 hPa NNE 2 mph /  3.2 km/h 10 mph /  16.1 km/h 82 % 0 in /  0.0 mm
13:57 41.7 °F /  5.4 °C 36.7 °F /  2.6 °C 30.2 in /  1021.9 hPa NW 5 mph /  8.0 km/h 9 mph /  14.5 km/h 82 % 0 in /  0.0 mm
14:02 41.7 °F /  5.4 °C 36.3 °F /  2.4 °C 30.2 in /  1021.9 hPa North 7 mph /  11.3 km/h 8 mph /  12.9 km/h 81 % 0 in /  0.0 mm
14:07 41.4 °F /  5.2 °C 35.4 °F /  1.9 °C 30.2 in /  1021.9 hPa North 7 mph /  11.3 km/h 8 mph /  12.9 km/h 79 % 0 in /  0.0 mm
14:12 41.4 °F /  5.2 °C 35.6 °F /  2.0 °C 30.2 in /  1021.6 hPa NNE 5 mph /  8.0 km/h 12 mph /  19.3 km/h 80 % 0 in /  0.0 mm
14:17 42.1 °F /  5.6 °C 36.7 °F /  2.6 °C 30.2 in /  1021.6 hPa North 1 mph /  1.6 km/h 12 mph /  19.3 km/h 81 % 0 in /  0.0 mm
14:22 42.4 °F /  5.8 °C 35.1 °F /  1.7 °C 30.2 in /  1021.6 hPa NNE 4 mph /  6.4 km/h 9 mph /  14.5 km/h 75 % 0 in /  0.0 mm
14:27 42.3 °F /  5.7 °C 35.6 °F /  2.0 °C 30.2 in /  1021.6 hPa NE 6 mph /  9.7 km/h 10 mph /  16.1 km/h 77 % 0 in /  0.0 mm
14:32 42.6 °F /  5.9 °C 36 °F /  2.2 °C 30.2 in /  1021.6 hPa NNW 6 mph /  9.7 km/h 10 mph /  16.1 km/h 77 % 0 in /  0.0 mm
14:37 43 °F /  6.1 °C 36.9 °F /  2.7 °C 30.2 in /  1021.6 hPa NNW 4 mph /  6.4 km/h 10 mph /  16.1 km/h 79 % 0 in /  0.0 mm
14:42 42.6 °F /  5.9 °C 36 °F /  2.2 °C 30.2 in /  1021.2 hPa NNW 4 mph /  6.4 km/h 10 mph /  16.1 km/h 77 % 0 in /  0.0 mm
14:47 42.6 °F /  5.9 °C 36 °F /  2.2 °C 30.2 in /  1021.2 hPa North 10 mph /  16.1 km/h 10 mph /  16.1 km/h 77 % 0 in /  0.0 mm
14:52 42.8 °F /  6.0 °C 35.8 °F /  2.1 °C 30.2 in /  1021.2 hPa NNW 4 mph /  6.4 km/h 11 mph /  17.7 km/h 76 % 0 in /  0.0 mm
14:57 43.2 °F /  6.2 °C 35.8 °F /  2.1 °C 30.2 in /  1021.2 hPa NNW 5 mph /  8.0 km/h 11 mph /  17.7 km/h 75 % 0 in /  0.0 mm
15:02 43.5 °F /  6.4 °C 34.7 °F /  1.5 °C 30.2 in /  1021.2 hPa NE 4 mph /  6.4 km/h 11 mph /  17.7 km/h 71 % 0 in /  0.0 mm
15:07 43.5 °F /  6.4 °C 35.8 °F /  2.1 °C 30.2 in /  1021.2 hPa NNE 8 mph /  12.9 km/h 9 mph /  14.5 km/h 74 % 0 in /  0.0 mm
15:12 43.3 °F /  6.3 °C 35.2 °F /  1.8 °C 30.2 in /  1021.2 hPa NNE 3 mph /  4.8 km/h 11 mph /  17.7 km/h 73 % 0 in /  0.0 mm
15:17 43.2 °F /  6.2 °C 35.4 °F /  1.9 °C 30.2 in /  1020.9 hPa NNE 6 mph /  9.7 km/h 11 mph /  17.7 km/h 74 % 0 in /  0.0 mm
15:22 43 °F /  6.1 °C 34.9 °F /  1.6 °C 30.2 in /  1020.9 hPa ENE 3 mph /  4.8 km/h 14 mph /  22.5 km/h 73 % 0 in /  0.0 mm
15:27 43 °F /  6.1 °C 34.9 °F /  1.6 °C 30.2 in /  1020.9 hPa NNE 2 mph /  3.2 km/h 14 mph /  22.5 km/h 73 % 0 in /  0.0 mm
15:32 43.5 °F /  6.4 °C 35.1 °F /  1.7 °C 30.2 in /  1020.9 hPa North 4 mph /  6.4 km/h 14 mph /  22.5 km/h 72 % 0 in /  0.0 mm
15:37 43.5 °F /  6.4 °C 34 °F /  1.1 °C 30.2 in /  1020.9 hPa NNE 5 mph /  8.0 km/h 8 mph /  12.9 km/h 69 % 0 in /  0.0 mm
15:42 43.5 °F /  6.4 °C 34.7 °F /  1.5 °C 30.2 in /  1020.9 hPa ENE 5 mph /  8.0 km/h 10 mph /  16.1 km/h 71 % 0 in /  0.0 mm
15:47 43.3 °F /  6.3 °C 34.2 °F /  1.2 °C 30.2 in /  1020.9 hPa NNE 7 mph /  11.3 km/h 14 mph /  22.5 km/h 70 % 0 in /  0.0 mm
15:52 43.2 °F /  6.2 °C 34.3 °F /  1.3 °C 30.1 in /  1020.5 hPa NE 5 mph /  8.0 km/h 14 mph /  22.5 km/h 71 % 0 in /  0.0 mm
15:57 43.2 °F /  6.2 °C 34.3 °F /  1.3 °C 30.1 in /  1020.5 hPa ENE 3 mph /  4.8 km/h 14 mph /  22.5 km/h 71 % 0 in /  0.0 mm
16:02 43.5 °F /  6.4 °C 34.3 °F /  1.3 °C 30.1 in /  1020.5 hPa NNE 4 mph /  6.4 km/h 11 mph /  17.7 km/h 70 % 0 in /  0.0 mm
16:07 43.5 °F /  6.4 °C 34 °F /  1.1 °C 30.1 in /  1020.5 hPa NNE 3 mph /  4.8 km/h 9 mph /  14.5 km/h 69 % 0 in /  0.0 mm
16:12 43.5 °F /  6.4 °C 34 °F /  1.1 °C 30.1 in /  1020.5 hPa NE 7 mph /  11.3 km/h 11 mph /  17.7 km/h 69 % 0 in /  0.0 mm
16:17 43.3 °F /  6.3 °C 33.1 °F /  0.6 °C 30.1 in /  1020.5 hPa NE 10 mph /  16.1 km/h 11 mph /  17.7 km/h 67 % 0 in /  0.0 mm
16:22 43.5 °F /  6.4 °C 33.6 °F /  0.9 °C 30.1 in /  1020.5 hPa NNE 4 mph /  6.4 km/h 12 mph /  19.3 km/h 68 % 0 in /  0.0 mm
16:27 43.7 °F /  6.5 °C 34.5 °F /  1.4 °C 30.1 in /  1020.5 hPa NNE 8 mph /  12.9 km/h 12 mph /  19.3 km/h 70 % 0 in /  0.0 mm
16:32 43.9 °F /  6.6 °C 34.7 °F /  1.5 °C 30.1 in /  1020.5 hPa NE 5 mph /  8.0 km/h 12 mph /  19.3 km/h 70 % 0 in /  0.0 mm
16:37 43.5 °F /  6.4 °C 34.7 °F /  1.5 °C 30.1 in /  1020.5 hPa NNW 4 mph /  6.4 km/h 11 mph /  17.7 km/h 71 % 0 in /  0.0 mm
16:42 43.3 °F /  6.3 °C 34.2 °F /  1.2 °C 30.1 in /  1020.2 hPa NNE 6 mph /  9.7 km/h 12 mph /  19.3 km/h 70 % 0 in /  0.0 mm
16:47 43.3 °F /  6.3 °C 34.2 °F /  1.2 °C 30.1 in /  1020.2 hPa NNE 4 mph /  6.4 km/h 12 mph /  19.3 km/h 70 % 0 in /  0.0 mm
16:52 43.3 °F /  6.3 °C 34.2 °F /  1.2 °C 30.1 in /  1020.2 hPa East 3 mph /  4.8 km/h 12 mph /  19.3 km/h 70 % 0 in /  0.0 mm
16:57 43.5 °F /  6.4 °C 34.7 °F /  1.5 °C 30.1 in /  1020.2 hPa NNE 4 mph /  6.4 km/h 12 mph /  19.3 km/h 71 % 0 in /  0.0 mm
17:02 43.3 °F /  6.3 °C 34.9 °F /  1.6 °C 30.1 in /  1020.2 hPa NW 3 mph /  4.8 km/h 9 mph /  14.5 km/h 72 % 0 in /  0.0 mm
17:07 43 °F /  6.1 °C 36 °F /  2.2 °C 30.1 in /  1020.2 hPa ENE 6 mph /  9.7 km/h 13 mph /  20.9 km/h 76 % 0 in /  0.0 mm
17:12 42.4 °F /  5.8 °C 35.8 °F /  2.1 °C 30.1 in /  1020.2 hPa East 6 mph /  9.7 km/h 13 mph /  20.9 km/h 77 % 0 in /  0.0 mm
17:17 42.3 °F /  5.7 °C 35.6 °F /  2.0 °C 30.1 in /  1020.2 hPa NNE 2 mph /  3.2 km/h 13 mph /  20.9 km/h 77 % 0 in /  0.0 mm
17:22 42.1 °F /  5.6 °C 35.8 °F /  2.1 °C 30.1 in /  1020.2 hPa East 4 mph /  6.4 km/h 9 mph /  14.5 km/h 78 % 0 in /  0.0 mm
17:32 41.5 °F /  5.3 °C 35.2 °F /  1.8 °C 30.1 in /  1020.2 hPa NE 4 mph /  6.4 km/h 8 mph /  12.9 km/h 78 % 0 in /  0.0 mm
17:42 41.2 °F /  5.1 °C 35.4 °F /  1.9 °C 30.1 in /  1020.2 hPa ENE 6 mph /  9.7 km/h 7 mph /  11.3 km/h 80 % 0 in /  0.0 mm
17:47 40.8 °F /  4.9 °C 35.4 °F /  1.9 °C 30.1 in /  1020.2 hPa ENE 3 mph /  4.8 km/h 8 mph /  12.9 km/h 81 % 0 in /  0.0 mm
17:52 40.5 °F /  4.7 °C 35.4 °F /  1.9 °C 30.1 in /  1020.2 hPa NE 3 mph /  4.8 km/h 8 mph /  12.9 km/h 82 % 0 in /  0.0 mm
17:57 40.3 °F /  4.6 °C 35.6 °F /  2.0 °C 30.1 in /  1020.2 hPa ENE 3 mph /  4.8 km/h 9 mph /  14.5 km/h 83 % 0 in /  0.0 mm
18:02 39.9 °F /  4.4 °C 35.2 °F /  1.8 °C 30.1 in /  1020.2 hPa NE 2 mph /  3.2 km/h 11 mph /  17.7 km/h 83 % 0 in /  0.0 mm
18:07 39.6 °F /  4.2 °C 35.1 °F /  1.7 °C 30.1 in /  1020.2 hPa ENE 3 mph /  4.8 km/h 11 mph /  17.7 km/h 84 % 0 in /  0.0 mm
18:12 39.2 °F /  4.0 °C 34.7 °F /  1.5 °C 30.1 in /  1020.2 hPa NNE 3 mph /  4.8 km/h 11 mph /  17.7 km/h 84 % 0 in /  0.0 mm
18:17 38.8 °F /  3.8 °C 34.3 °F /  1.3 °C 30.1 in /  1020.2 hPa NE 5 mph /  8.0 km/h 9 mph /  14.5 km/h 84 % 0 in /  0.0 mm
18:22 38.7 °F /  3.7 °C 34.2 °F /  1.2 °C 30.1 in /  1020.2 hPa ENE 2 mph /  3.2 km/h 9 mph /  14.5 km/h 84 % 0 in /  0.0 mm
18:27 38.3 °F /  3.5 °C 34 °F /  1.1 °C 30.1 in /  1020.2 hPa NNE 1 mph /  1.6 km/h 9 mph /  14.5 km/h 84 % 0 in /  0.0 mm
18:32 37.9 °F /  3.3 °C 33.6 °F /  0.9 °C 30.1 in /  1020.2 hPa NE 2 mph /  3.2 km/h 9 mph /  14.5 km/h 84 % 0 in /  0.0 mm
18:37 37.8 °F /  3.2 °C 33.4 °F /  0.8 °C 30.1 in /  1020.2 hPa Calm   7 mph /  11.3 km/h 84 % 0 in /  0.0 mm
18:42 37.6 °F /  3.1 °C 33.4 °F /  0.8 °C 30.1 in /  1020.2 hPa NE 1 mph /  1.6 km/h 7 mph /  11.3 km/h 85 % 0 in /  0.0 mm
18:47 37.4 °F /  3.0 °C 33.3 °F /  0.7 °C 30.1 in /  1020.2 hPa NE 1 mph /  1.6 km/h 6 mph /  9.7 km/h 85 % 0 in /  0.0 mm
18:52 37.2 °F /  2.9 °C 33.1 °F /  0.6 °C 30.1 in /  1020.2 hPa East 1 mph /  1.6 km/h 5 mph /  8.0 km/h 85 % 0 in /  0.0 mm
18:57 37 °F /  2.8 °C 32.9 °F /  0.5 °C 30.1 in /  1020.2 hPa Calm   4 mph /  6.4 km/h 85 % 0 in /  0.0 mm
19:02 36.9 °F /  2.7 °C 32.7 °F /  0.4 °C 30.1 in /  1020.2 hPa ENE 1 mph /  1.6 km/h 4 mph /  6.4 km/h 85 % 0 in /  0.0 mm
19:07 36.9 °F /  2.7 °C 32.7 °F /  0.4 °C 30.1 in /  1020.2 hPa Calm   4 mph /  6.4 km/h 85 % 0 in /  0.0 mm
19:12 36.7 °F /  2.6 °C 32.5 °F /  0.3 °C 30.1 in /  1020.2 hPa Calm   6 mph /  9.7 km/h 85 % 0 in /  0.0 mm
19:17 36.3 °F /  2.4 °C 32.5 °F /  0.3 °C 30.1 in /  1020.2 hPa Calm   6 mph /  9.7 km/h 86 % 0 in /  0.0 mm
19:22 36.3 °F /  2.4 °C 32.5 °F /  0.3 °C 30.1 in /  1020.5 hPa NNE 1 mph /  1.6 km/h 6 mph /  9.7 km/h 86 % 0 in /  0.0 mm
19:27 36.3 °F /  2.4 °C 32.5 °F /  0.3 °C 30.1 in /  1020.5 hPa NE 3 mph /  4.8 km/h 4 mph /  6.4 km/h 86 % 0 in /  0.0 mm
19:32 36.5 °F /  2.5 °C 32.4 °F /  0.2 °C 30.1 in /  1020.5 hPa NNE 4 mph /  6.4 km/h 5 mph /  8.0 km/h 85 % 0 in /  0.0 mm
19:37 36.5 °F /  2.5 °C 32.4 °F /  0.2 °C 30.1 in /  1020.5 hPa North 1 mph /  1.6 km/h 5 mph /  8.0 km/h 85 % 0 in /  0.0 mm
19:42 36.3 °F /  2.4 °C 32.5 °F /  0.3 °C 30.1 in /  1020.5 hPa NE 3 mph /  4.8 km/h 5 mph /  8.0 km/h 86 % 0 in /  0.0 mm
19:47 36.3 °F /  2.4 °C 32.5 °F /  0.3 °C 30.1 in /  1020.5 hPa NNE 3 mph /  4.8 km/h 5 mph /  8.0 km/h 86 % 0 in /  0.0 mm
19:52 36.1 °F /  2.3 °C 32.4 °F /  0.2 °C 30.1 in /  1020.2 hPa NE 3 mph /  4.8 km/h 4 mph /  6.4 km/h 86 % 0 in /  0.0 mm
19:57 36.3 °F /  2.4 °C 32.5 °F /  0.3 °C 30.1 in /  1020.2 hPa NE 5 mph /  8.0 km/h 6 mph /  9.7 km/h 86 % 0 in /  0.0 mm
20:02 36.3 °F /  2.4 °C 32.2 °F /  0.1 °C 30.1 in /  1020.2 hPa NE 2 mph /  3.2 km/h 6 mph /  9.7 km/h 85 % 0 in /  0.0 mm
20:07 36.3 °F /  2.4 °C 32.2 °F /  0.1 °C 30.1 in /  1020.2 hPa NE 4 mph /  6.4 km/h 7 mph /  11.3 km/h 85 % 0 in /  0.0 mm
20:12 36.3 °F /  2.4 °C 32.2 °F /  0.1 °C 30.1 in /  1020.2 hPa NNE 5 mph /  8.0 km/h 7 mph /  11.3 km/h 85 % 0 in /  0.0 mm
20:17 36.3 °F /  2.4 °C 32.2 °F /  0.1 °C 30.1 in /  1020.2 hPa NE 3 mph /  4.8 km/h 7 mph /  11.3 km/h 85 % 0 in /  0.0 mm
20:22 36.1 °F /  2.3 °C 32 °F /  0.0 °C 30.1 in /  1020.2 hPa Calm   7 mph /  11.3 km/h 85 % 0 in /  0.0 mm
20:27 36 °F /  2.2 °C 32.2 °F /  0.1 °C 30.1 in /  1020.2 hPa NNE 1 mph /  1.6 km/h 6 mph /  9.7 km/h 86 % 0 in /  0.0 mm
20:32 35.8 °F /  2.1 °C 32 °F /  0.0 °C 30.1 in /  1019.9 hPa North 1 mph /  1.6 km/h 4 mph /  6.4 km/h 86 % 0 in /  0.0 mm
20:37 35.6 °F /  2.0 °C 32.2 °F /  0.1 °C 30.1 in /  1019.9 hPa Calm   3 mph /  4.8 km/h 87 % 0 in /  0.0 mm
20:42 35.6 °F /  2.0 °C 32.2 °F /  0.1 °C 30.1 in /  1019.9 hPa NNE 3 mph /  4.8 km/h 4 mph /  6.4 km/h 87 % 0 in /  0.0 mm
20:47 35.8 °F /  2.1 °C 32.4 °F /  0.2 °C 30.1 in /  1019.9 hPa NNE 4 mph /  6.4 km/h 4 mph /  6.4 km/h 87 % 0 in /  0.0 mm
20:52 36.1 °F /  2.3 °C 32.4 °F /  0.2 °C 30.1 in /  1019.9 hPa NNE 4 mph /  6.4 km/h 7 mph /  11.3 km/h 86 % 0 in /  0.0 mm
20:57 36.3 °F /  2.4 °C 32.2 °F /  0.1 °C 30.1 in /  1019.9 hPa NNE 7 mph /  11.3 km/h 9 mph /  14.5 km/h 85 % 0 in /  0.0 mm
21:02 36.3 °F /  2.4 °C 32.2 °F /  0.1 °C 30.1 in /  1019.9 hPa NNE 5 mph /  8.0 km/h 9 mph /  14.5 km/h 85 % 0 in /  0.0 mm
21:07 36.3 °F /  2.4 °C 32.2 °F /  0.1 °C 30.1 in /  1019.9 hPa NNE 6 mph /  9.7 km/h 9 mph /  14.5 km/h 85 % 0 in /  0.0 mm
21:12 36.3 °F /  2.4 °C 32.2 °F /  0.1 °C 30.1 in /  1019.9 hPa NNE 2 mph /  3.2 km/h 9 mph /  14.5 km/h 85 % 0 in /  0.0 mm
21:17 36.1 °F /  2.3 °C 32 °F /  0.0 °C 30.1 in /  1019.9 hPa NNE 4 mph /  6.4 km/h 9 mph /  14.5 km/h 85 % 0 in /  0.0 mm
21:22 36.1 °F /  2.3 °C 32 °F /  0.0 °C 30.1 in /  1019.5 hPa NNE 5 mph /  8.0 km/h 9 mph /  14.5 km/h 85 % 0 in /  0.0 mm
21:27 36 °F /  2.2 °C 31.8 °F /  -0.1 °C 30.1 in /  1019.9 hPa NNE 4 mph /  6.4 km/h 8 mph /  12.9 km/h 85 % 0 in /  0.0 mm
21:32 36 °F /  2.2 °C 31.8 °F /  -0.1 °C 30.1 in /  1019.5 hPa NE 4 mph /  6.4 km/h 8 mph /  12.9 km/h 85 % 0 in /  0.0 mm
21:37 36 °F /  2.2 °C 31.8 °F /  -0.1 °C 30.1 in /  1019.5 hPa NE 5 mph /  8.0 km/h 8 mph /  12.9 km/h 85 % 0 in /  0.0 mm
21:42 35.8 °F /  2.1 °C 31.6 °F /  -0.2 °C 30.1 in /  1019.5 hPa North 2 mph /  3.2 km/h 7 mph /  11.3 km/h 85 % 0 in /  0.0 mm
21:47 35.6 °F /  2.0 °C 31.8 °F /  -0.1 °C 30.1 in /  1019.5 hPa NE 3 mph /  4.8 km/h 7 mph /  11.3 km/h 86 % 0 in /  0.0 mm
21:52 35.4 °F /  1.9 °C 31.6 °F /  -0.2 °C 30.1 in /  1019.5 hPa NNE 2 mph /  3.2 km/h 7 mph /  11.3 km/h 86 % 0 in /  0.0 mm
21:57 35.2 °F /  1.8 °C 31.5 °F /  -0.3 °C 30.1 in /  1019.5 hPa NNE 2 mph /  3.2 km/h 6 mph /  9.7 km/h 86 % 0 in /  0.0 mm
22:02 35.1 °F /  1.7 °C 31.3 °F /  -0.4 °C 30.1 in /  1019.5 hPa NNE 1 mph /  1.6 km/h 5 mph /  8.0 km/h 86 % 0 in /  0.0 mm
22:07 34.9 °F /  1.6 °C 31.5 °F /  -0.3 °C 30.1 in /  1019.5 hPa NNE 2 mph /  3.2 km/h 6 mph /  9.7 km/h 87 % 0 in /  0.0 mm
22:12 34.7 °F /  1.5 °C 31.3 °F /  -0.4 °C 30.1 in /  1019.2 hPa NNE 4 mph /  6.4 km/h 6 mph /  9.7 km/h 87 % 0 in /  0.0 mm
22:17 34.5 °F /  1.4 °C 31.1 °F /  -0.5 °C 30.1 in /  1019.5 hPa NNW 2 mph /  3.2 km/h 5 mph /  8.0 km/h 87 % 0 in /  0.0 mm
22:22 34.5 °F /  1.4 °C 31.3 °F /  -0.4 °C 30.1 in /  1019.2 hPa North 5 mph /  8.0 km/h 6 mph /  9.7 km/h 88 % 0 in /  0.0 mm
22:27 34.5 °F /  1.4 °C 31.1 °F /  -0.5 °C 30.1 in /  1019.2 hPa Calm   8 mph /  12.9 km/h 87 % 0 in /  0.0 mm
22:32 34.3 °F /  1.3 °C 30.9 °F /  -0.6 °C 30.1 in /  1019.2 hPa NNE 4 mph /  6.4 km/h 8 mph /  12.9 km/h 87 % 0 in /  0.0 mm
22:37 34.2 °F /  1.2 °C 30.9 °F /  -0.6 °C 30.1 in /  1019.2 hPa NNE 1 mph /  1.6 km/h 8 mph /  12.9 km/h 88 % 0 in /  0.0 mm
22:42 34 °F /  1.1 °C 30.7 °F /  -0.7 °C 30.1 in /  1019.2 hPa North 1 mph /  1.6 km/h 7 mph /  11.3 km/h 88 % 0 in /  0.0 mm
22:47 33.8 °F /  1.0 °C 30.6 °F /  -0.8 °C 30.1 in /  1019.2 hPa North 2 mph /  3.2 km/h 5 mph /  8.0 km/h 88 % 0 in /  0.0 mm
22:52 33.6 °F /  0.9 °C 30.4 °F /  -0.9 °C 30.1 in /  1019.2 hPa NE 1 mph /  1.6 km/h 8 mph /  12.9 km/h 88 % 0 in /  0.0 mm
22:57 33.4 °F /  0.8 °C 30.2 °F /  -1.0 °C 30.1 in /  1019.2 hPa North 1 mph /  1.6 km/h 8 mph /  12.9 km/h 88 % 0 in /  0.0 mm
23:02 33.3 °F /  0.7 °C 30.4 °F /  -0.9 °C 30.1 in /  1019.2 hPa NNE 3 mph /  4.8 km/h 8 mph /  12.9 km/h 89 % 0 in /  0.0 mm
23:07 33.3 °F /  0.7 °C 30.4 °F /  -0.9 °C 30.1 in /  1019.2 hPa Calm   5 mph /  8.0 km/h 89 % 0 in /  0.0 mm
23:12 33.1 °F /  0.6 °C 30.2 °F /  -1.0 °C 30.1 in /  1019.2 hPa North 2 mph /  3.2 km/h 4 mph /  6.4 km/h 89 % 0 in /  0.0 mm
23:17 33.1 °F /  0.6 °C 30.2 °F /  -1.0 °C 30.1 in /  1019.2 hPa NE 2 mph /  3.2 km/h 4 mph /  6.4 km/h 89 % 0 in /  0.0 mm
23:22 32.9 °F /  0.5 °C 30 °F /  -1.1 °C 30.1 in /  1019.2 hPa ENE 1 mph /  1.6 km/h 4 mph /  6.4 km/h 89 % 0 in /  0.0 mm
23:27 32.9 °F /  0.5 °C 30 °F /  -1.1 °C 30.1 in /  1019.2 hPa NNW 3 mph /  4.8 km/h 4 mph /  6.4 km/h 89 % 0 in /  0.0 mm
23:32 32.7 °F /  0.4 °C 29.8 °F /  -1.2 °C 30.1 in /  1018.8 hPa NNW 3 mph /  4.8 km/h 4 mph /  6.4 km/h 89 % 0 in /  0.0 mm
23:37 32.7 °F /  0.4 °C 29.8 °F /  -1.2 °C 30.1 in /  1018.8 hPa NE 2 mph /  3.2 km/h 4 mph /  6.4 km/h 89 % 0 in /  0.0 mm
23:42 32.5 °F /  0.3 °C 30 °F /  -1.1 °C 30.1 in /  1019.2 hPa Calm   3 mph /  4.8 km/h 90 % 0 in /  0.0 mm
23:47 32.5 °F /  0.3 °C 29.7 °F /  -1.3 °C 30.1 in /  1019.2 hPa North 1 mph /  1.6 km/h 3 mph /  4.8 km/h 89 % 0 in /  0.0 mm
23:57 32.5 °F /  0.3 °C 29.7 °F /  -1.3 °C 30.1 in /  1018.8 hPa North 1 mph /  1.6 km/h 4 mph /  6.4 km/h 89 % 0 in /  0.0 mm
Meteo18
Compliments of Weather Underground - 4 mb

Script developed by  Jim McMurry - jmcmurry@mwt.net Adapted for the template by  Wim van der Kuil - Leuven-Template.eu

You find our weather info also at:

European Weather Network

Weather Underground

Equipment we use:

Weather-station
Davis Vue

Weather-program
Meteohub

Weather-server
Raspberry PI 2 B+

Provider
1 and 1

Davis Vue

Meteohub

Raspberry PI 2 B+

1 and 1